sensor_id;sensor_type;location;lat;lon;timestamp;P1;durP1;ratioP1;P2;durP2;ratioP2
6288;SDS011;3177;49.880;8.836;2024-03-06T00:00:58;6.17;;;5.10;;
6288;SDS011;3177;49.880;8.836;2024-03-06T00:03:25;5.37;;;4.43;;
6288;SDS011;3177;49.880;8.836;2024-03-06T00:05:52;5.13;;;4.63;;
6288;SDS011;3177;49.880;8.836;2024-03-06T00:08:21;6.80;;;4.90;;
6288;SDS011;3177;49.880;8.836;2024-03-06T00:10:48;5.40;;;4.90;;
6288;SDS011;3177;49.880;8.836;2024-03-06T00:13:15;6.30;;;5.00;;
6288;SDS011;3177;49.880;8.836;2024-03-06T00:15:42;6.87;;;4.53;;
6288;SDS011;3177;49.880;8.836;2024-03-06T00:18:10;7.27;;;4.90;;
6288;SDS011;3177;49.880;8.836;2024-03-06T00:20:37;6.17;;;4.60;;
6288;SDS011;3177;49.880;8.836;2024-03-06T00:23:05;6.23;;;5.03;;
6288;SDS011;3177;49.880;8.836;2024-03-06T00:25:34;8.20;;;4.77;;
6288;SDS011;3177;49.880;8.836;2024-03-06T00:28:01;5.90;;;4.77;;
6288;SDS011;3177;49.880;8.836;2024-03-06T00:30:28;5.93;;;4.37;;
6288;SDS011;3177;49.880;8.836;2024-03-06T00:32:55;5.97;;;4.70;;
6288;SDS011;3177;49.880;8.836;2024-03-06T00:35:22;8.43;;;4.70;;
6288;SDS011;3177;49.880;8.836;2024-03-06T00:37:49;5.43;;;4.43;;
6288;SDS011;3177;49.880;8.836;2024-03-06T00:40:16;6.93;;;4.93;;
6288;SDS011;3177;49.880;8.836;2024-03-06T00:42:44;4.57;;;4.17;;
6288;SDS011;3177;49.880;8.836;2024-03-06T00:45:11;8.67;;;5.07;;
6288;SDS011;3177;49.880;8.836;2024-03-06T00:47:38;5.27;;;4.70;;
6288;SDS011;3177;49.880;8.836;2024-03-06T00:50:06;5.13;;;4.63;;
6288;SDS011;3177;49.880;8.836;2024-03-06T00:52:33;7.73;;;5.00;;
6288;SDS011;3177;49.880;8.836;2024-03-06T00:55:00;6.77;;;5.10;;
6288;SDS011;3177;49.880;8.836;2024-03-06T00:57:27;8.50;;;5.00;;
6288;SDS011;3177;49.880;8.836;2024-03-06T00:59:55;6.90;;;5.67;;
6288;SDS011;3177;49.880;8.836;2024-03-06T01:02:22;5.30;;;4.63;;
6288;SDS011;3177;49.880;8.836;2024-03-06T01:04:50;6.30;;;5.00;;
6288;SDS011;3177;49.880;8.836;2024-03-06T01:07:17;8.60;;;5.33;;
6288;SDS011;3177;49.880;8.836;2024-03-06T01:09:44;7.97;;;5.03;;
6288;SDS011;3177;49.880;8.836;2024-03-06T01:12:11;7.33;;;5.07;;
6288;SDS011;3177;49.880;8.836;2024-03-06T01:14:38;7.30;;;5.00;;
6288;SDS011;3177;49.880;8.836;2024-03-06T01:17:06;6.27;;;4.90;;
6288;SDS011;3177;49.880;8.836;2024-03-06T01:19:33;8.87;;;6.03;;
6288;SDS011;3177;49.880;8.836;2024-03-06T01:22:00;7.77;;;5.33;;
6288;SDS011;3177;49.880;8.836;2024-03-06T01:24:27;6.57;;;5.53;;
6288;SDS011;3177;49.880;8.836;2024-03-06T01:26:54;6.30;;;5.30;;
6288;SDS011;3177;49.880;8.836;2024-03-06T01:29:21;7.00;;;5.97;;
6288;SDS011;3177;49.880;8.836;2024-03-06T01:31:48;7.07;;;5.23;;
6288;SDS011;3177;49.880;8.836;2024-03-06T01:34:17;6.17;;;5.53;;
6288;SDS011;3177;49.880;8.836;2024-03-06T01:36:44;9.70;;;5.97;;
6288;SDS011;3177;49.880;8.836;2024-03-06T01:39:11;5.87;;;5.10;;
6288;SDS011;3177;49.880;8.836;2024-03-06T01:41:44;9.27;;;5.63;;
6288;SDS011;3177;49.880;8.836;2024-03-06T01:44:11;6.77;;;4.93;;
6288;SDS011;3177;49.880;8.836;2024-03-06T01:46:38;8.10;;;5.50;;
6288;SDS011;3177;49.880;8.836;2024-03-06T01:49:05;7.13;;;5.50;;
6288;SDS011;3177;49.880;8.836;2024-03-06T01:51:33;12.87;;;5.70;;
6288;SDS011;3177;49.880;8.836;2024-03-06T01:54:01;6.30;;;5.37;;
6288;SDS011;3177;49.880;8.836;2024-03-06T01:56:29;7.97;;;5.47;;
6288;SDS011;3177;49.880;8.836;2024-03-06T01:58:56;5.67;;;5.03;;
6288;SDS011;3177;49.880;8.836;2024-03-06T02:01:24;9.67;;;6.33;;
6288;SDS011;3177;49.880;8.836;2024-03-06T02:03:51;7.00;;;5.43;;
6288;SDS011;3177;49.880;8.836;2024-03-06T02:06:18;6.63;;;5.67;;
6288;SDS011;3177;49.880;8.836;2024-03-06T02:08:47;7.57;;;5.00;;
6288;SDS011;3177;49.880;8.836;2024-03-06T02:11:14;6.93;;;5.17;;
6288;SDS011;3177;49.880;8.836;2024-03-06T02:13:41;6.87;;;5.30;;
6288;SDS011;3177;49.880;8.836;2024-03-06T02:16:09;6.57;;;5.70;;
6288;SDS011;3177;49.880;8.836;2024-03-06T02:18:36;9.60;;;5.77;;
6288;SDS011;3177;49.880;8.836;2024-03-06T02:21:05;5.77;;;4.80;;
6288;SDS011;3177;49.880;8.836;2024-03-06T02:23:32;6.60;;;5.63;;
6288;SDS011;3177;49.880;8.836;2024-03-06T02:26:00;6.40;;;4.97;;
6288;SDS011;3177;49.880;8.836;2024-03-06T02:28:27;5.07;;;4.57;;
6288;SDS011;3177;49.880;8.836;2024-03-06T02:30:55;5.30;;;4.50;;
6288;SDS011;3177;49.880;8.836;2024-03-06T02:33:22;10.27;;;5.37;;
6288;SDS011;3177;49.880;8.836;2024-03-06T02:35:49;6.57;;;5.27;;
6288;SDS011;3177;49.880;8.836;2024-03-06T02:38:17;6.57;;;5.07;;
6288;SDS011;3177;49.880;8.836;2024-03-06T02:40:44;5.33;;;4.83;;
6288;SDS011;3177;49.880;8.836;2024-03-06T02:43:13;8.47;;;5.20;;
6288;SDS011;3177;49.880;8.836;2024-03-06T02:45:40;5.10;;;4.60;;
6288;SDS011;3177;49.880;8.836;2024-03-06T02:48:08;6.20;;;5.17;;
6288;SDS011;3177;49.880;8.836;2024-03-06T02:50:35;9.63;;;5.57;;
6288;SDS011;3177;49.880;8.836;2024-03-06T02:53:02;6.20;;;5.60;;
6288;SDS011;3177;49.880;8.836;2024-03-06T02:55:31;7.50;;;5.40;;
6288;SDS011;3177;49.880;8.836;2024-03-06T02:58:00;7.40;;;6.03;;
6288;SDS011;3177;49.880;8.836;2024-03-06T03:00:28;8.20;;;5.37;;
6288;SDS011;3177;49.880;8.836;2024-03-06T03:02:56;11.63;;;6.00;;
6288;SDS011;3177;49.880;8.836;2024-03-06T03:05:23;8.40;;;5.47;;
6288;SDS011;3177;49.880;8.836;2024-03-06T03:07:50;10.83;;;5.90;;
6288;SDS011;3177;49.880;8.836;2024-03-06T03:10:18;10.17;;;5.70;;
6288;SDS011;3177;49.880;8.836;2024-03-06T03:12:46;6.70;;;5.63;;
6288;SDS011;3177;49.880;8.836;2024-03-06T03:15:13;6.97;;;5.43;;
6288;SDS011;3177;49.880;8.836;2024-03-06T03:17:40;5.90;;;5.30;;
6288;SDS011;3177;49.880;8.836;2024-03-06T03:20:07;5.90;;;5.30;;
6288;SDS011;3177;49.880;8.836;2024-03-06T03:22:36;7.37;;;5.90;;
6288;SDS011;3177;49.880;8.836;2024-03-06T03:25:03;6.10;;;4.53;;
6288;SDS011;3177;49.880;8.836;2024-03-06T03:27:32;7.73;;;5.70;;
6288;SDS011;3177;49.880;8.836;2024-03-06T03:30:00;6.17;;;5.23;;
6288;SDS011;3177;49.880;8.836;2024-03-06T03:32:28;14.87;;;6.00;;
6288;SDS011;3177;49.880;8.836;2024-03-06T03:34:55;5.70;;;5.10;;
6288;SDS011;3177;49.880;8.836;2024-03-06T03:37:22;7.57;;;5.73;;
6288;SDS011;3177;49.880;8.836;2024-03-06T03:39:49;5.80;;;5.20;;
6288;SDS011;3177;49.880;8.836;2024-03-06T03:42:16;6.93;;;5.60;;
6288;SDS011;3177;49.880;8.836;2024-03-06T03:44:44;5.90;;;5.30;;
6288;SDS011;3177;49.880;8.836;2024-03-06T03:47:12;6.63;;;4.43;;
6288;SDS011;3177;49.880;8.836;2024-03-06T03:49:39;5.10;;;4.60;;
6288;SDS011;3177;49.880;8.836;2024-03-06T03:52:07;9.73;;;5.60;;
6288;SDS011;3177;49.880;8.836;2024-03-06T03:54:34;8.07;;;5.23;;
6288;SDS011;3177;49.880;8.836;2024-03-06T03:57:01;7.23;;;5.00;;
6288;SDS011;3177;49.880;8.836;2024-03-06T03:59:28;6.00;;;5.20;;
6288;SDS011;3177;49.880;8.836;2024-03-06T04:01:55;7.60;;;5.50;;
6288;SDS011;3177;49.880;8.836;2024-03-06T04:04:24;6.57;;;5.60;;
6288;SDS011;3177;49.880;8.836;2024-03-06T04:06:51;8.60;;;5.27;;
6288;SDS011;3177;49.880;8.836;2024-03-06T04:09:18;6.80;;;5.80;;
6288;SDS011;3177;49.880;8.836;2024-03-06T04:11:45;7.33;;;5.47;;
6288;SDS011;3177;49.880;8.836;2024-03-06T04:14:12;7.23;;;5.57;;
6288;SDS011;3177;49.880;8.836;2024-03-06T04:16:39;7.93;;;5.53;;
6288;SDS011;3177;49.880;8.836;2024-03-06T04:19:06;7.77;;;5.33;;
6288;SDS011;3177;49.880;8.836;2024-03-06T04:21:34;6.80;;;5.60;;
6288;SDS011;3177;49.880;8.836;2024-03-06T04:24:01;7.60;;;5.80;;
6288;SDS011;3177;49.880;8.836;2024-03-06T04:26:28;6.73;;;4.53;;
6288;SDS011;3177;49.880;8.836;2024-03-06T04:28:55;6.77;;;5.33;;
6288;SDS011;3177;49.880;8.836;2024-03-06T04:31:22;7.77;;;5.40;;
6288;SDS011;3177;49.880;8.836;2024-03-06T04:33:50;6.07;;;5.20;;
6288;SDS011;3177;49.880;8.836;2024-03-06T04:36:17;7.00;;;4.40;;
6288;SDS011;3177;49.880;8.836;2024-03-06T04:41:33;5.50;;;5.00;;
6288;SDS011;3177;49.880;8.836;2024-03-06T04:44:00;4.60;;;4.20;;
6288;SDS011;3177;49.880;8.836;2024-03-06T04:46:27;4.60;;;4.20;;
6288;SDS011;3177;49.880;8.836;2024-03-06T04:48:55;4.63;;;4.10;;
6288;SDS011;3177;49.880;8.836;2024-03-06T04:51:22;5.20;;;4.70;;
6288;SDS011;3177;49.880;8.836;2024-03-06T04:53:49;5.77;;;5.07;;
6288;SDS011;3177;49.880;8.836;2024-03-06T04:56:16;6.67;;;5.67;;
6288;SDS011;3177;49.880;8.836;2024-03-06T04:58:47;8.27;;;5.13;;
6288;SDS011;3177;49.880;8.836;2024-03-06T05:01:14;6.63;;;5.47;;
6288;SDS011;3177;49.880;8.836;2024-03-06T05:03:41;5.63;;;5.00;;
6288;SDS011;3177;49.880;8.836;2024-03-06T05:06:08;7.03;;;5.73;;
6288;SDS011;3177;49.880;8.836;2024-03-06T05:08:35;7.87;;;5.80;;
6288;SDS011;3177;49.880;8.836;2024-03-06T05:11:03;14.57;;;6.37;;
6288;SDS011;3177;49.880;8.836;2024-03-06T05:13:30;8.73;;;5.73;;
6288;SDS011;3177;49.880;8.836;2024-03-06T05:15:59;12.70;;;6.63;;
6288;SDS011;3177;49.880;8.836;2024-03-06T05:18:26;8.33;;;5.40;;
6288;SDS011;3177;49.880;8.836;2024-03-06T05:20:53;7.60;;;5.83;;
6288;SDS011;3177;49.880;8.836;2024-03-06T05:23:20;6.40;;;5.40;;
6288;SDS011;3177;49.880;8.836;2024-03-06T05:25:47;6.70;;;5.67;;
6288;SDS011;3177;49.880;8.836;2024-03-06T05:28:14;7.83;;;5.43;;
6288;SDS011;3177;49.880;8.836;2024-03-06T05:30:41;7.20;;;5.40;;
6288;SDS011;3177;49.880;8.836;2024-03-06T05:33:10;6.63;;;5.40;;
6288;SDS011;3177;49.880;8.836;2024-03-06T05:35:37;6.73;;;5.30;;
6288;SDS011;3177;49.880;8.836;2024-03-06T05:38:04;8.70;;;6.20;;
6288;SDS011;3177;49.880;8.836;2024-03-06T05:40:35;9.70;;;6.17;;
6288;SDS011;3177;49.880;8.836;2024-03-06T05:43:04;7.70;;;5.80;;
6288;SDS011;3177;49.880;8.836;2024-03-06T05:45:31;8.03;;;5.87;;
6288;SDS011;3177;49.880;8.836;2024-03-06T05:47:58;9.20;;;6.23;;
6288;SDS011;3177;49.880;8.836;2024-03-06T05:50:26;6.77;;;5.53;;
6288;SDS011;3177;49.880;8.836;2024-03-06T05:52:53;10.23;;;6.17;;
6288;SDS011;3177;49.880;8.836;2024-03-06T05:55:20;11.43;;;6.87;;
6288;SDS011;3177;49.880;8.836;2024-03-06T05:57:47;12.03;;;6.57;;
6288;SDS011;3177;49.880;8.836;2024-03-06T06:00:15;6.77;;;5.43;;
6288;SDS011;3177;49.880;8.836;2024-03-06T06:02:43;11.33;;;6.70;;
6288;SDS011;3177;49.880;8.836;2024-03-06T06:05:21;11.43;;;7.37;;
6288;SDS011;3177;49.880;8.836;2024-03-06T06:07:50;15.17;;;8.03;;
6288;SDS011;3177;49.880;8.836;2024-03-06T06:10:17;10.17;;;6.63;;
6288;SDS011;3177;49.880;8.836;2024-03-06T06:12:45;9.67;;;6.87;;
6288;SDS011;3177;49.880;8.836;2024-03-06T06:15:12;10.13;;;7.17;;
6288;SDS011;3177;49.880;8.836;2024-03-06T06:17:39;7.63;;;6.20;;
6288;SDS011;3177;49.880;8.836;2024-03-06T06:20:16;11.17;;;6.70;;
6288;SDS011;3177;49.880;8.836;2024-03-06T06:22:43;10.30;;;6.40;;
6288;SDS011;3177;49.880;8.836;2024-03-06T06:25:12;7.47;;;6.73;;
6288;SDS011;3177;49.880;8.836;2024-03-06T06:27:41;8.30;;;6.50;;
6288;SDS011;3177;49.880;8.836;2024-03-06T06:30:08;12.90;;;7.23;;
6288;SDS011;3177;49.880;8.836;2024-03-06T06:32:36;11.77;;;6.73;;
6288;SDS011;3177;49.880;8.836;2024-03-06T06:35:05;9.40;;;6.93;;
6288;SDS011;3177;49.880;8.836;2024-03-06T06:37:32;10.30;;;7.13;;
6288;SDS011;3177;49.880;8.836;2024-03-06T06:39:59;6.57;;;5.80;;
6288;SDS011;3177;49.880;8.836;2024-03-06T06:42:32;12.30;;;6.20;;
6288;SDS011;3177;49.880;8.836;2024-03-06T06:44:59;9.57;;;6.70;;
6288;SDS011;3177;49.880;8.836;2024-03-06T06:47:27;11.20;;;6.63;;
6288;SDS011;3177;49.880;8.836;2024-03-06T06:49:54;10.27;;;6.67;;
6288;SDS011;3177;49.880;8.836;2024-03-06T06:52:21;10.73;;;7.33;;
6288;SDS011;3177;49.880;8.836;2024-03-06T06:54:48;11.47;;;6.67;;
6288;SDS011;3177;49.880;8.836;2024-03-06T06:57:18;9.80;;;7.83;;
6288;SDS011;3177;49.880;8.836;2024-03-06T06:59:46;11.27;;;7.73;;
6288;SDS011;3177;49.880;8.836;2024-03-06T07:02:13;11.60;;;7.07;;
6288;SDS011;3177;49.880;8.836;2024-03-06T07:04:40;10.63;;;7.77;;
6288;SDS011;3177;49.880;8.836;2024-03-06T07:07:07;12.53;;;7.63;;
6288;SDS011;3177;49.880;8.836;2024-03-06T07:09:35;14.27;;;8.40;;
6288;SDS011;3177;49.880;8.836;2024-03-06T07:12:02;11.27;;;7.87;;
6288;SDS011;3177;49.880;8.836;2024-03-06T07:14:29;11.30;;;8.60;;
6288;SDS011;3177;49.880;8.836;2024-03-06T07:16:58;13.90;;;8.77;;
6288;SDS011;3177;49.880;8.836;2024-03-06T07:19:25;14.67;;;8.40;;
6288;SDS011;3177;49.880;8.836;2024-03-06T07:21:52;18.57;;;8.83;;
6288;SDS011;3177;49.880;8.836;2024-03-06T07:24:19;16.97;;;8.93;;
6288;SDS011;3177;49.880;8.836;2024-03-06T07:26:58;15.63;;;9.10;;
6288;SDS011;3177;49.880;8.836;2024-03-06T07:29:26;21.60;;;9.20;;
6288;SDS011;3177;49.880;8.836;2024-03-06T07:31:53;15.73;;;9.10;;
6288;SDS011;3177;49.880;8.836;2024-03-06T07:34:21;15.20;;;8.93;;
6288;SDS011;3177;49.880;8.836;2024-03-06T07:36:48;15.13;;;9.57;;
6288;SDS011;3177;49.880;8.836;2024-03-06T07:39:16;18.33;;;9.90;;
6288;SDS011;3177;49.880;8.836;2024-03-06T07:41:45;21.57;;;9.20;;
6288;SDS011;3177;49.880;8.836;2024-03-06T07:44:12;18.53;;;9.53;;
6288;SDS011;3177;49.880;8.836;2024-03-06T07:46:39;16.83;;;9.60;;
6288;SDS011;3177;49.880;8.836;2024-03-06T07:49:06;16.37;;;9.13;;
6288;SDS011;3177;49.880;8.836;2024-03-06T07:51:35;21.30;;;9.70;;
6288;SDS011;3177;49.880;8.836;2024-03-06T07:54:02;18.27;;;9.07;;
6288;SDS011;3177;49.880;8.836;2024-03-06T07:56:30;26.40;;;10.63;;
6288;SDS011;3177;49.880;8.836;2024-03-06T07:58:57;17.27;;;9.60;;
6288;SDS011;3177;49.880;8.836;2024-03-06T08:01:24;19.17;;;10.67;;
6288;SDS011;3177;49.880;8.836;2024-03-06T08:03:53;23.53;;;10.53;;
6288;SDS011;3177;49.880;8.836;2024-03-06T08:06:21;29.60;;;10.93;;
6288;SDS011;3177;49.880;8.836;2024-03-06T08:08:49;28.57;;;10.77;;
6288;SDS011;3177;49.880;8.836;2024-03-06T08:11:17;24.53;;;11.97;;
6288;SDS011;3177;49.880;8.836;2024-03-06T08:13:46;21.80;;;11.73;;
6288;SDS011;3177;49.880;8.836;2024-03-06T08:16:14;21.60;;;11.80;;
6288;SDS011;3177;49.880;8.836;2024-03-06T08:18:41;24.53;;;11.53;;
6288;SDS011;3177;49.880;8.836;2024-03-06T08:21:19;22.77;;;12.30;;
6288;SDS011;3177;49.880;8.836;2024-03-06T08:23:54;24.83;;;12.60;;
6288;SDS011;3177;49.880;8.836;2024-03-06T08:26:21;25.07;;;13.87;;
6288;SDS011;3177;49.880;8.836;2024-03-06T08:28:49;27.80;;;14.23;;
6288;SDS011;3177;49.880;8.836;2024-03-06T08:31:16;29.10;;;13.37;;
6288;SDS011;3177;49.880;8.836;2024-03-06T08:33:53;31.17;;;13.97;;
6288;SDS011;3177;49.880;8.836;2024-03-06T08:36:21;30.27;;;14.43;;
6288;SDS011;3177;49.880;8.836;2024-03-06T08:38:49;24.40;;;13.10;;
6288;SDS011;3177;49.880;8.836;2024-03-06T08:43:56;34.17;;;14.50;;
6288;SDS011;3177;49.880;8.836;2024-03-06T08:46:23;36.77;;;16.50;;
6288;SDS011;3177;49.880;8.836;2024-03-06T08:48:52;32.80;;;16.27;;
6288;SDS011;3177;49.880;8.836;2024-03-06T08:51:19;42.07;;;17.60;;
6288;SDS011;3177;49.880;8.836;2024-03-06T08:53:47;34.87;;;15.40;;
6288;SDS011;3177;49.880;8.836;2024-03-06T08:56:14;38.00;;;17.27;;
6288;SDS011;3177;49.880;8.836;2024-03-06T08:58:41;38.30;;;18.50;;
6288;SDS011;3177;49.880;8.836;2024-03-06T09:01:09;39.57;;;16.63;;
6288;SDS011;3177;49.880;8.836;2024-03-06T09:03:37;42.00;;;21.00;;
6288;SDS011;3177;49.880;8.836;2024-03-06T09:06:05;48.67;;;21.70;;
6288;SDS011;3177;49.880;8.836;2024-03-06T09:08:32;54.87;;;21.77;;
6288;SDS011;3177;49.880;8.836;2024-03-06T09:10:59;51.67;;;21.30;;
6288;SDS011;3177;49.880;8.836;2024-03-06T09:13:30;56.13;;;22.80;;
6288;SDS011;3177;49.880;8.836;2024-03-06T09:15:57;55.23;;;22.07;;
6288;SDS011;3177;49.880;8.836;2024-03-06T09:18:26;64.37;;;23.63;;
6288;SDS011;3177;49.880;8.836;2024-03-06T09:20:53;75.03;;;27.53;;
6288;SDS011;3177;49.880;8.836;2024-03-06T09:23:20;59.47;;;23.90;;
6288;SDS011;3177;49.880;8.836;2024-03-06T09:25:48;58.83;;;25.00;;
6288;SDS011;3177;49.880;8.836;2024-03-06T09:28:15;62.70;;;23.27;;
6288;SDS011;3177;49.880;8.836;2024-03-06T09:30:42;51.23;;;20.60;;
6288;SDS011;3177;49.880;8.836;2024-03-06T09:33:09;62.00;;;22.97;;
6288;SDS011;3177;49.880;8.836;2024-03-06T09:35:38;60.60;;;25.07;;
6288;SDS011;3177;49.880;8.836;2024-03-06T09:38:10;37.97;;;17.23;;
6288;SDS011;3177;49.880;8.836;2024-03-06T09:40:38;45.03;;;20.40;;
6288;SDS011;3177;49.880;8.836;2024-03-06T09:43:08;56.73;;;23.73;;
6288;SDS011;3177;49.880;8.836;2024-03-06T09:45:36;55.20;;;23.13;;
6288;SDS011;3177;49.880;8.836;2024-03-06T09:48:03;64.93;;;25.33;;
6288;SDS011;3177;49.880;8.836;2024-03-06T09:50:31;52.17;;;21.60;;
6288;SDS011;3177;49.880;8.836;2024-03-06T09:53:04;51.03;;;23.50;;
6288;SDS011;3177;49.880;8.836;2024-03-06T09:55:33;51.27;;;22.00;;
6288;SDS011;3177;49.880;8.836;2024-03-06T09:58:02;36.83;;;18.40;;
6288;SDS011;3177;49.880;8.836;2024-03-06T10:00:33;32.40;;;18.07;;
6288;SDS011;3177;49.880;8.836;2024-03-06T10:03:01;30.50;;;17.40;;
6288;SDS011;3177;49.880;8.836;2024-03-06T10:05:30;29.20;;;16.03;;
6288;SDS011;3177;49.880;8.836;2024-03-06T10:08:16;24.20;;;14.37;;
6288;SDS011;3177;49.880;8.836;2024-03-06T10:10:43;23.60;;;14.03;;
6288;SDS011;3177;49.880;8.836;2024-03-06T10:13:12;20.60;;;13.37;;
6288;SDS011;3177;49.880;8.836;2024-03-06T10:15:40;20.63;;;13.17;;
6288;SDS011;3177;49.880;8.836;2024-03-06T10:18:10;18.37;;;11.67;;
6288;SDS011;3177;49.880;8.836;2024-03-06T10:20:38;19.57;;;12.47;;
6288;SDS011;3177;49.880;8.836;2024-03-06T10:23:06;21.33;;;12.50;;
6288;SDS011;3177;49.880;8.836;2024-03-06T10:25:36;16.63;;;10.17;;
6288;SDS011;3177;49.880;8.836;2024-03-06T10:28:03;18.53;;;12.03;;
6288;SDS011;3177;49.880;8.836;2024-03-06T10:30:30;16.77;;;10.90;;
6288;SDS011;3177;49.880;8.836;2024-03-06T10:32:58;18.30;;;11.70;;
6288;SDS011;3177;49.880;8.836;2024-03-06T10:35:25;21.53;;;12.27;;
6288;SDS011;3177;49.880;8.836;2024-03-06T10:37:52;18.43;;;11.07;;
6288;SDS011;3177;49.880;8.836;2024-03-06T10:40:21;16.83;;;10.50;;
6288;SDS011;3177;49.880;8.836;2024-03-06T10:42:58;18.23;;;10.97;;
6288;SDS011;3177;49.880;8.836;2024-03-06T10:45:28;17.37;;;10.93;;
6288;SDS011;3177;49.880;8.836;2024-03-06T10:47:59;18.00;;;11.20;;
6288;SDS011;3177;49.880;8.836;2024-03-06T10:50:26;17.13;;;11.53;;
6288;SDS011;3177;49.880;8.836;2024-03-06T10:52:54;17.80;;;11.80;;
6288;SDS011;3177;49.880;8.836;2024-03-06T10:55:21;17.93;;;11.70;;
6288;SDS011;3177;49.880;8.836;2024-03-06T10:57:49;16.77;;;10.93;;
6288;SDS011;3177;49.880;8.836;2024-03-06T11:00:20;17.63;;;10.60;;
6288;SDS011;3177;49.880;8.836;2024-03-06T11:02:47;18.17;;;10.43;;
6288;SDS011;3177;49.880;8.836;2024-03-06T11:05:15;15.37;;;10.47;;
6288;SDS011;3177;49.880;8.836;2024-03-06T11:07:42;16.53;;;10.67;;
6288;SDS011;3177;49.880;8.836;2024-03-06T11:10:09;16.67;;;10.47;;
6288;SDS011;3177;49.880;8.836;2024-03-06T11:12:41;16.57;;;10.67;;
6288;SDS011;3177;49.880;8.836;2024-03-06T11:15:10;19.83;;;10.20;;
6288;SDS011;3177;49.880;8.836;2024-03-06T11:17:41;17.73;;;11.03;;
6288;SDS011;3177;49.880;8.836;2024-03-06T11:28:28;16.13;;;9.97;;
6288;SDS011;3177;49.880;8.836;2024-03-06T11:30:55;17.30;;;9.97;;
6288;SDS011;3177;49.880;8.836;2024-03-06T11:33:27;14.50;;;9.97;;
6288;SDS011;3177;49.880;8.836;2024-03-06T11:36:16;13.47;;;9.97;;
6288;SDS011;3177;49.880;8.836;2024-03-06T11:38:47;13.77;;;9.57;;
6288;SDS011;3177;49.880;8.836;2024-03-06T11:41:14;15.93;;;9.80;;
6288;SDS011;3177;49.880;8.836;2024-03-06T11:43:43;14.97;;;9.60;;
6288;SDS011;3177;49.880;8.836;2024-03-06T11:46:22;13.37;;;8.70;;
6288;SDS011;3177;49.880;8.836;2024-03-06T11:48:54;12.87;;;8.70;;
6288;SDS011;3177;49.880;8.836;2024-03-06T11:51:21;16.40;;;9.93;;
6288;SDS011;3177;49.880;8.836;2024-03-06T11:53:49;16.40;;;9.63;;
6288;SDS011;3177;49.880;8.836;2024-03-06T11:56:17;13.60;;;9.07;;
6288;SDS011;3177;49.880;8.836;2024-03-06T11:58:47;13.63;;;9.17;;
6288;SDS011;3177;49.880;8.836;2024-03-06T12:01:14;11.87;;;8.40;;
6288;SDS011;3177;49.880;8.836;2024-03-06T12:03:41;13.57;;;8.77;;
6288;SDS011;3177;49.880;8.836;2024-03-06T12:06:12;10.17;;;8.03;;
6288;SDS011;3177;49.880;8.836;2024-03-06T12:08:39;14.97;;;8.87;;
6288;SDS011;3177;49.880;8.836;2024-03-06T12:11:21;13.70;;;8.63;;
6288;SDS011;3177;49.880;8.836;2024-03-06T12:13:48;12.90;;;8.70;;
6288;SDS011;3177;49.880;8.836;2024-03-06T12:16:22;13.57;;;8.73;;
6288;SDS011;3177;49.880;8.836;2024-03-06T12:18:54;13.27;;;8.20;;
6288;SDS011;3177;49.880;8.836;2024-03-06T12:24:02;11.87;;;9.13;;
6288;SDS011;3177;49.880;8.836;2024-03-06T12:29:08;12.13;;;8.20;;
6288;SDS011;3177;49.880;8.836;2024-03-06T12:31:35;11.73;;;8.50;;
6288;SDS011;3177;49.880;8.836;2024-03-06T12:34:05;12.83;;;8.57;;
6288;SDS011;3177;49.880;8.836;2024-03-06T12:36:32;13.87;;;8.40;;
6288;SDS011;3177;49.880;8.836;2024-03-06T12:39:01;12.97;;;8.40;;
6288;SDS011;3177;49.880;8.836;2024-03-06T12:41:32;12.77;;;8.67;;
6288;SDS011;3177;49.880;8.836;2024-03-06T12:43:59;12.00;;;8.43;;
6288;SDS011;3177;49.880;8.836;2024-03-06T12:46:28;14.00;;;9.73;;
6288;SDS011;3177;49.880;8.836;2024-03-06T12:48:55;12.73;;;8.80;;
6288;SDS011;3177;49.880;8.836;2024-03-06T12:51:22;14.73;;;9.77;;
6288;SDS011;3177;49.880;8.836;2024-03-06T12:53:49;14.23;;;9.40;;
6288;SDS011;3177;49.880;8.836;2024-03-06T12:56:16;16.20;;;10.20;;
6288;SDS011;3177;49.880;8.836;2024-03-06T12:58:45;12.83;;;9.13;;
6288;SDS011;3177;49.880;8.836;2024-03-06T13:01:12;12.87;;;9.17;;
6288;SDS011;3177;49.880;8.836;2024-03-06T13:03:39;15.87;;;9.33;;
6288;SDS011;3177;49.880;8.836;2024-03-06T13:06:06;10.73;;;8.13;;
6288;SDS011;3177;49.880;8.836;2024-03-06T13:08:34;13.53;;;8.87;;
6288;SDS011;3177;49.880;8.836;2024-03-06T13:11:01;15.07;;;9.07;;
6288;SDS011;3177;49.880;8.836;2024-03-06T13:13:28;12.40;;;8.50;;
6288;SDS011;3177;49.880;8.836;2024-03-06T13:15:59;15.70;;;9.50;;
6288;SDS011;3177;49.880;8.836;2024-03-06T13:18:26;16.27;;;9.43;;
6288;SDS011;3177;49.880;8.836;2024-03-06T13:20:53;17.13;;;10.53;;
6288;SDS011;3177;49.880;8.836;2024-03-06T13:23:23;13.43;;;9.03;;
6288;SDS011;3177;49.880;8.836;2024-03-06T13:25:50;11.43;;;8.03;;
6288;SDS011;3177;49.880;8.836;2024-03-06T13:28:17;12.70;;;8.90;;
6288;SDS011;3177;49.880;8.836;2024-03-06T13:30:46;13.27;;;8.33;;
6288;SDS011;3177;49.880;8.836;2024-03-06T13:33:17;12.03;;;8.27;;
6288;SDS011;3177;49.880;8.836;2024-03-06T13:35:44;12.53;;;8.00;;
6288;SDS011;3177;49.880;8.836;2024-03-06T13:38:18;11.37;;;7.60;;
6288;SDS011;3177;49.880;8.836;2024-03-06T13:40:45;9.87;;;7.00;;
6288;SDS011;3177;49.880;8.836;2024-03-06T13:43:12;11.27;;;7.67;;
6288;SDS011;3177;49.880;8.836;2024-03-06T13:45:47;11.77;;;7.63;;
6288;SDS011;3177;49.880;8.836;2024-03-06T13:48:14;10.67;;;7.60;;
6288;SDS011;3177;49.880;8.836;2024-03-06T13:50:43;10.20;;;7.30;;
6288;SDS011;3177;49.880;8.836;2024-03-06T13:53:10;12.37;;;8.33;;
6288;SDS011;3177;49.880;8.836;2024-03-06T13:55:37;12.23;;;7.30;;
6288;SDS011;3177;49.880;8.836;2024-03-06T13:58:05;11.70;;;8.27;;
6288;SDS011;3177;49.880;8.836;2024-03-06T14:00:32;12.33;;;8.53;;
6288;SDS011;3177;49.880;8.836;2024-03-06T14:03:00;11.93;;;8.07;;
6288;SDS011;3177;49.880;8.836;2024-03-06T14:05:27;12.10;;;8.27;;
6288;SDS011;3177;49.880;8.836;2024-03-06T14:07:55;11.57;;;8.33;;
6288;SDS011;3177;49.880;8.836;2024-03-06T14:10:22;11.77;;;8.53;;
6288;SDS011;3177;49.880;8.836;2024-03-06T14:12:51;13.53;;;8.37;;
6288;SDS011;3177;49.880;8.836;2024-03-06T14:15:20;12.07;;;8.23;;
6288;SDS011;3177;49.880;8.836;2024-03-06T14:17:48;13.93;;;8.63;;
6288;SDS011;3177;49.880;8.836;2024-03-06T14:20:15;12.80;;;8.70;;
6288;SDS011;3177;49.880;8.836;2024-03-06T14:22:43;17.10;;;8.90;;
6288;SDS011;3177;49.880;8.836;2024-03-06T14:25:11;14.40;;;9.27;;
6288;SDS011;3177;49.880;8.836;2024-03-06T14:27:38;15.53;;;9.00;;
6288;SDS011;3177;49.880;8.836;2024-03-06T14:30:06;12.40;;;8.13;;
6288;SDS011;3177;49.880;8.836;2024-03-06T14:32:33;13.17;;;8.10;;
6288;SDS011;3177;49.880;8.836;2024-03-06T14:35:01;13.77;;;8.83;;
6288;SDS011;3177;49.880;8.836;2024-03-06T14:37:28;14.50;;;8.60;;
6288;SDS011;3177;49.880;8.836;2024-03-06T14:39:55;13.47;;;9.50;;
6288;SDS011;3177;49.880;8.836;2024-03-06T14:42:23;15.30;;;9.03;;
6288;SDS011;3177;49.880;8.836;2024-03-06T14:44:50;13.30;;;8.37;;
6288;SDS011;3177;49.880;8.836;2024-03-06T14:47:17;12.47;;;9.07;;
6288;SDS011;3177;49.880;8.836;2024-03-06T14:49:44;10.50;;;7.63;;
6288;SDS011;3177;49.880;8.836;2024-03-06T14:52:11;13.77;;;8.17;;
6288;SDS011;3177;49.880;8.836;2024-03-06T14:54:39;13.90;;;7.93;;
6288;SDS011;3177;49.880;8.836;2024-03-06T14:57:06;11.13;;;7.70;;
6288;SDS011;3177;49.880;8.836;2024-03-06T14:59:35;13.87;;;8.10;;
6288;SDS011;3177;49.880;8.836;2024-03-06T15:02:03;10.83;;;7.90;;
6288;SDS011;3177;49.880;8.836;2024-03-06T15:04:30;10.93;;;7.77;;
6288;SDS011;3177;49.880;8.836;2024-03-06T15:06:57;9.97;;;7.17;;
6288;SDS011;3177;49.880;8.836;2024-03-06T15:09:25;13.60;;;7.83;;
6288;SDS011;3177;49.880;8.836;2024-03-06T15:11:53;11.60;;;7.70;;
6288;SDS011;3177;49.880;8.836;2024-03-06T15:14:21;11.20;;;7.73;;
6288;SDS011;3177;49.880;8.836;2024-03-06T15:16:49;14.03;;;7.63;;
6288;SDS011;3177;49.880;8.836;2024-03-06T15:19:16;11.70;;;7.80;;
6288;SDS011;3177;49.880;8.836;2024-03-06T15:21:44;12.77;;;8.53;;
6288;SDS011;3177;49.880;8.836;2024-03-06T15:24:11;14.27;;;8.93;;
6288;SDS011;3177;49.880;8.836;2024-03-06T15:26:38;12.37;;;7.80;;